Time;durP1;ratioP1;P1;durP2;ratioP2;P2;SDS_P1;SDS_P2;PMS_P1;PMS_P2;Temp;Humidity;BMP_temperature;BMP_pressure;BME280_temperature;BME280_humidity;BME280_pressure;Samples;Min_cycle;Max_cycle;Signal;HPM_P1;HPM_P2
2021/04/30 00:01:12;;;;;;;5.30;4.90;;;;;;;;;;5056267;28;20191;-85
2021/04/30 00:03:38;;;;;;;5.20;4.70;;;;;;;;;;5055908;28;20202;-85
2021/04/30 00:06:05;;;;;;;5.27;4.87;;;;;;;;;;5073834;28;20210;-85
2021/04/30 00:08:31;;;;;;;5.10;4.70;;;;;;;;;;5033719;28;20281;-85
2021/04/30 00:10:57;;;;;;;5.20;4.80;;;;;;;;;;5032731;28;20216;-85
2021/04/30 00:13:24;;;;;;;6.83;5.13;;;;;;;;;;5049218;28;20219;-85
2021/04/30 00:15:50;;;;;;;5.27;4.90;;;;;;;;;;5033911;28;20239;-84
2021/04/30 00:18:17;;;;;;;5.50;5.00;;;;;;;;;;5032484;28;20204;-85
2021/04/30 00:20:51;;;;;;;5.57;5.17;;;;;;;;;;5049408;28;20244;-85
2021/04/30 00:23:17;;;;;;;5.60;5.10;;;;;;;;;;5032784;28;20195;-85
2021/04/30 00:25:45;;;;;;;6.30;5.70;;;;;;;;;;5032327;28;20208;-84
2021/04/30 00:28:11;;;;;;;6.27;5.77;;;;;;;;;;5032320;28;20675;-85
2021/04/30 00:30:38;;;;;;;6.37;5.87;;;;;;;;;;5032555;28;20652;-85
2021/04/30 00:33:05;;;;;;;7.07;5.50;;;;;;;;;;5032612;28;20250;-85
2021/04/30 00:35:32;;;;;;;5.77;5.20;;;;;;;;;;5035958;28;20199;-85
2021/04/30 00:37:58;;;;;;;5.80;5.30;;;;;;;;;;5038134;28;20691;-85
2021/04/30 00:40:24;;;;;;;6.07;5.50;;;;;;;;;;5053216;28;20679;-85
2021/04/30 00:42:52;;;;;;;4.60;4.17;;;;;;;;;;5036393;28;20188;-85
2021/04/30 00:45:19;;;;;;;4.90;4.50;;;;;;;;;;5037758;28;20181;-85
2021/04/30 00:47:46;;;;;;;5.10;4.60;;;;;;;;;;5036568;28;20258;-85
2021/04/30 00:50:13;;;;;;;6.10;4.70;;;;;;;;;;5036494;28;20231;-85
2021/04/30 00:52:40;;;;;;;5.23;4.90;;;;;;;;;;5037560;28;20183;-85
2021/04/30 00:55:07;;;;;;;5.10;4.70;;;;;;;;;;5036295;28;20226;-85
2021/04/30 00:57:34;;;;;;;5.00;4.60;;;;;;;;;;5036046;28;20204;-85
2021/04/30 01:00:00;;;;;;;4.90;4.60;;;;;;;;;;5037105;28;20212;-84
2021/04/30 01:02:27;;;;;;;5.07;4.67;;;;;;;;;;5052545;28;20204;-84
2021/04/30 01:04:53;;;;;;;4.90;4.60;;;;;;;;;;5036017;28;20196;-83
2021/04/30 01:07:19;;;;;;;4.87;4.47;;;;;;;;;;5054827;28;20257;-83
2021/04/30 01:09:46;;;;;;;4.77;4.43;;;;;;;;;;5059426;28;20205;-84
2021/04/30 01:12:12;;;;;;;5.97;5.10;;;;;;;;;;5059080;28;20194;-84
2021/04/30 01:14:38;;;;;;;5.57;5.17;;;;;;;;;;5076948;28;20210;-84
2021/04/30 01:17:05;;;;;;;5.53;5.00;;;;;;;;;;5077014;28;20210;-84
2021/04/30 01:19:31;;;;;;;5.50;5.10;;;;;;;;;;5058909;28;20234;-83
2021/04/30 01:21:59;;;;;;;5.23;4.73;;;;;;;;;;5058947;28;20191;-84
2021/04/30 01:24:25;;;;;;;5.03;4.63;;;;;;;;;;5058671;28;20203;-84
2021/04/30 01:26:51;;;;;;;6.17;4.73;;;;;;;;;;5058755;28;20276;-83
2021/04/30 01:29:18;;;;;;;5.50;5.00;;;;;;;;;;5059110;28;20183;-84
2021/04/30 01:31:44;;;;;;;5.37;4.87;;;;;;;;;;5076627;28;20218;-83
2021/04/30 01:34:11;;;;;;;5.50;5.10;;;;;;;;;;5076674;28;20215;-84
2021/04/30 01:36:37;;;;;;;5.00;4.60;;;;;;;;;;5076511;28;20236;-84
2021/04/30 01:39:06;;;;;;;5.43;4.93;;;;;;;;;;5076392;28;20233;-84
2021/04/30 01:41:33;;;;;;;5.70;5.10;;;;;;;;;;5058711;28;20666;-84
2021/04/30 01:43:59;;;;;;;5.93;5.33;;;;;;;;;;5058496;28;20186;-83
2021/04/30 01:46:25;;;;;;;8.73;6.33;;;;;;;;;;5075765;28;20186;-83
2021/04/30 01:48:51;;;;;;;7.73;6.20;;;;;;;;;;5058283;28;20203;-83
2021/04/30 01:51:17;;;;;;;5.67;5.13;;;;;;;;;;5075412;28;20206;-83
2021/04/30 01:53:44;;;;;;;5.50;5.00;;;;;;;;;;5058299;28;20723;-84
2021/04/30 01:56:12;;;;;;;5.53;5.13;;;;;;;;;;5076161;28;20210;-84
2021/04/30 01:58:38;;;;;;;5.57;5.07;;;;;;;;;;5058113;28;20195;-83
2021/04/30 02:01:05;;;;;;;5.10;4.70;;;;;;;;;;5058086;28;20214;-83
2021/04/30 02:03:31;;;;;;;5.17;4.77;;;;;;;;;;5076137;28;20182;-83
2021/04/30 02:05:57;;;;;;;6.23;5.73;;;;;;;;;;5076239;28;20727;-84
2021/04/30 02:08:24;;;;;;;5.57;5.07;;;;;;;;;;5036889;28;20232;-83
2021/04/30 02:10:50;;;;;;;5.93;5.33;;;;;;;;;;5036077;28;20184;-83
2021/04/30 02:13:19;;;;;;;8.30;6.10;;;;;;;;;;5034982;28;20593;-84
2021/04/30 02:15:46;;;;;;;6.53;5.90;;;;;;;;;;5051184;28;20258;-83
2021/04/30 02:18:12;;;;;;;7.30;5.70;;;;;;;;;;5035907;28;20188;-83
2021/04/30 02:20:39;;;;;;;6.80;5.70;;;;;;;;;;5034713;28;20236;-83
2021/04/30 02:23:05;;;;;;;7.40;5.50;;;;;;;;;;5035710;28;20215;-84
2021/04/30 02:25:32;;;;;;;6.10;5.50;;;;;;;;;;5034100;28;20193;-83
2021/04/30 02:27:59;;;;;;;5.83;5.33;;;;;;;;;;5035092;28;20239;-84
2021/04/30 02:30:27;;;;;;;5.63;5.17;;;;;;;;;;5035602;28;20255;-83
2021/04/30 02:32:53;;;;;;;5.33;4.93;;;;;;;;;;5033964;28;20204;-84
2021/04/30 02:35:21;;;;;;;5.83;5.43;;;;;;;;;;5034236;28;20204;-83
2021/04/30 02:37:48;;;;;;;6.30;5.57;;;;;;;;;;5034001;28;20691;-83
2021/04/30 02:40:15;;;;;;;6.80;6.20;;;;;;;;;;5050964;28;20313;-82
2021/04/30 02:42:41;;;;;;;5.87;5.37;;;;;;;;;;5035338;28;20221;-83
2021/04/30 02:45:09;;;;;;;5.67;5.17;;;;;;;;;;5034333;28;20196;-84
2021/04/30 02:47:36;;;;;;;10.17;7.40;;;;;;;;;;5033847;28;20208;-84
2021/04/30 02:50:03;;;;;;;18.53;9.73;;;;;;;;;;5035017;28;20258;-84
2021/04/30 02:52:29;;;;;;;6.80;6.20;;;;;;;;;;5033690;28;20204;-84
2021/04/30 02:54:55;;;;;;;6.50;5.87;;;;;;;;;;5033713;28;20215;-85
2021/04/30 02:57:22;;;;;;;9.47;6.10;;;;;;;;;;5049552;28;20208;-83
2021/04/30 02:59:48;;;;;;;6.53;5.93;;;;;;;;;;5033713;28;20254;-83
2021/04/30 03:02:15;;;;;;;7.90;5.87;;;;;;;;;;5050304;28;20224;-83
2021/04/30 03:04:42;;;;;;;6.23;5.73;;;;;;;;;;5033820;28;20200;-84
2021/04/30 03:07:08;;;;;;;6.40;5.80;;;;;;;;;;5041016;28;20231;-84
2021/04/30 03:09:34;;;;;;;5.83;5.43;;;;;;;;;;5053623;28;20317;-83
2021/04/30 03:12:01;;;;;;;6.40;5.87;;;;;;;;;;5053711;28;20184;-84
2021/04/30 03:14:27;;;;;;;6.03;5.53;;;;;;;;;;5053018;28;20199;-85
2021/04/30 03:16:53;;;;;;;7.53;6.17;;;;;;;;;;5054930;28;20207;-84
2021/04/30 03:19:19;;;;;;;6.57;5.97;;;;;;;;;;5053291;28;20659;-83
2021/04/30 03:21:46;;;;;;;6.50;5.90;;;;;;;;;;5054690;28;20179;-83
2021/04/30 03:24:13;;;;;;;6.77;5.83;;;;;;;;;;5053421;28;20260;-83
2021/04/30 03:26:39;;;;;;;9.87;6.17;;;;;;;;;;5054448;28;20235;-83
2021/04/30 03:29:05;;;;;;;5.53;5.13;;;;;;;;;;5054524;28;20212;-83
2021/04/30 03:31:32;;;;;;;6.10;5.60;;;;;;;;;;5053187;28;20191;-83
2021/04/30 03:33:58;;;;;;;6.03;5.60;;;;;;;;;;5053377;28;20191;-83
2021/04/30 03:36:24;;;;;;;6.57;6.00;;;;;;;;;;5053151;28;20200;-83
2021/04/30 03:38:51;;;;;;;6.70;6.10;;;;;;;;;;5053396;28;20198;-83
2021/04/30 03:41:17;;;;;;;6.03;5.63;;;;;;;;;;5054267;28;20349;-83
2021/04/30 03:43:44;;;;;;;6.47;5.97;;;;;;;;;;5052892;28;20643;-83
2021/04/30 03:46:11;;;;;;;7.20;6.70;;;;;;;;;;5051756;28;21110;-81
2021/04/30 03:48:37;;;;;;;6.57;6.07;;;;;;;;;;5069169;28;20251;-84
2021/04/30 03:51:03;;;;;;;6.47;5.97;;;;;;;;;;5069098;28;20211;-81
2021/04/30 03:53:29;;;;;;;7.00;6.37;;;;;;;;;;5052630;28;20555;-82
2021/04/30 03:55:56;;;;;;;6.87;6.27;;;;;;;;;;5053984;28;20239;-83
2021/04/30 03:58:22;;;;;;;7.03;6.33;;;;;;;;;;5052352;28;20555;-83
2021/04/30 04:00:49;;;;;;;6.20;5.70;;;;;;;;;;5054005;28;20642;-81
2021/04/30 04:03:15;;;;;;;6.40;5.90;;;;;;;;;;5052525;28;20195;-80
2021/04/30 04:05:41;;;;;;;6.13;5.70;;;;;;;;;;5051911;28;20741;-80
2021/04/30 04:08:08;;;;;;;6.50;5.90;;;;;;;;;;5036330;28;20727;-81
2021/04/30 04:10:35;;;;;;;7.23;6.20;;;;;;;;;;5033324;28;20211;-82
2021/04/30 04:13:02;;;;;;;6.83;6.23;;;;;;;;;;5048758;28;20208;-80
2021/04/30 04:15:28;;;;;;;6.63;6.03;;;;;;;;;;5031950;28;20208;-79
2021/04/30 04:17:54;;;;;;;6.47;5.90;;;;;;;;;;5031971;28;20200;-80
2021/04/30 04:20:20;;;;;;;6.77;6.23;;;;;;;;;;5031898;28;20242;-81
2021/04/30 04:22:46;;;;;;;7.13;6.53;;;;;;;;;;5048200;28;20738;-80
2021/04/30 04:25:13;;;;;;;7.40;6.60;;;;;;;;;;5031859;28;20192;-80
2021/04/30 04:27:39;;;;;;;7.27;6.63;;;;;;;;;;5031821;28;20223;-80
2021/04/30 04:30:10;;;;;;;7.83;6.80;;;;;;;;;;5031336;28;20200;-80
2021/04/30 04:32:36;;;;;;;7.33;6.73;;;;;;;;;;5031973;28;20200;-81
2021/04/30 04:35:02;;;;;;;7.07;6.47;;;;;;;;;;5032047;28;20668;-82
2021/04/30 04:37:28;;;;;;;7.70;7.00;;;;;;;;;;5032006;28;20242;-80
2021/04/30 04:39:54;;;;;;;7.70;7.00;;;;;;;;;;5031664;28;20263;-80
2021/04/30 04:42:21;;;;;;;7.40;6.80;;;;;;;;;;5031282;28;20699;-80
2021/04/30 04:44:47;;;;;;;8.50;7.00;;;;;;;;;;5048515;28;20203;-79
2021/04/30 04:47:14;;;;;;;7.40;6.70;;;;;;;;;;5031643;28;20278;-80
2021/04/30 04:49:40;;;;;;;7.00;6.30;;;;;;;;;;5031790;28;20219;-80
2021/04/30 04:52:06;;;;;;;8.20;6.80;;;;;;;;;;5032848;28;20241;-80
2021/04/30 04:54:32;;;;;;;7.33;6.77;;;;;;;;;;5048366;28;20208;-80
2021/04/30 04:56:58;;;;;;;7.20;6.57;;;;;;;;;;5031904;28;20215;-80
2021/04/30 04:59:24;;;;;;;7.97;7.30;;;;;;;;;;5031939;28;20219;-79
2021/04/30 05:01:51;;;;;;;8.47;7.77;;;;;;;;;;5031729;28;20250;-81
2021/04/30 05:04:18;;;;;;;8.03;7.33;;;;;;;;;;5033054;28;20211;-82
2021/04/30 05:06:44;;;;;;;9.03;8.13;;;;;;;;;;5040839;28;20225;-85
2021/04/30 05:09:10;;;;;;;8.77;7.90;;;;;;;;;;5071972;28;20213;-83
2021/04/30 05:11:37;;;;;;;9.33;8.30;;;;;;;;;;5055113;28;20191;-82
2021/04/30 05:14:03;;;;;;;8.83;7.93;;;;;;;;;;5055101;28;20186;-82
2021/04/30 05:16:29;;;;;;;9.43;7.87;;;;;;;;;;5071507;28;20199;-82
2021/04/30 05:18:55;;;;;;;10.73;7.87;;;;;;;;;;5054757;28;20561;-82
2021/04/30 05:21:22;;;;;;;11.80;8.20;;;;;;;;;;5074337;28;20592;-83
2021/04/30 05:23:49;;;;;;;9.97;8.57;;;;;;;;;;5076656;28;20211;-82
2021/04/30 05:26:15;;;;;;;11.27;8.70;;;;;;;;;;5058403;28;20597;-82
2021/04/30 05:28:41;;;;;;;9.83;8.93;;;;;;;;;;5058889;28;20202;-83
2021/04/30 05:31:08;;;;;;;14.23;9.60;;;;;;;;;;5058101;28;20650;-82
2021/04/30 05:33:34;;;;;;;11.00;9.90;;;;;;;;;;5058483;28;20199;-84
2021/04/30 05:36:00;;;;;;;11.13;9.87;;;;;;;;;;5058446;28;20202;-84
2021/04/30 05:38:27;;;;;;;11.50;10.33;;;;;;;;;;5075613;28;20253;-83
2021/04/30 05:40:53;;;;;;;11.03;9.97;;;;;;;;;;5075267;28;20265;-82
2021/04/30 05:43:19;;;;;;;10.73;9.77;;;;;;;;;;5076113;28;20206;-83
2021/04/30 05:45:45;;;;;;;12.80;10.68;;;;;;;;;;5057887;28;20761;-83
2021/04/30 05:48:12;;;;;;;11.57;10.47;;;;;;;;;;5058301;28;20669;-84
2021/04/30 05:50:38;;;;;;;11.40;10.20;;;;;;;;;;5058299;28;20651;-84
2021/04/30 05:53:04;;;;;;;12.00;10.37;;;;;;;;;;5075926;28;20567;-82
2021/04/30 05:55:31;;;;;;;12.17;11.07;;;;;;;;;;5058588;28;20558;-87
2021/04/30 05:57:57;;;;;;;17.13;11.60;;;;;;;;;;5058640;28;20198;-87
2021/04/30 06:00:23;;;;;;;14.80;11.53;;;;;;;;;;5058318;28;20272;-85
2021/04/30 06:02:50;;;;;;;13.23;11.80;;;;;;;;;;5058264;28;20194;-85
2021/04/30 06:05:16;;;;;;;12.43;11.00;;;;;;;;;;5058135;28;20209;-83
2021/04/30 06:07:42;;;;;;;16.13;11.70;;;;;;;;;;5057636;28;20230;-82
2021/04/30 06:10:09;;;;;;;11.90;10.77;;;;;;;;;;5057611;28;20230;-84
2021/04/30 06:12:36;;;;;;;11.80;10.10;;;;;;;;;;5075620;28;20183;-84
2021/04/30 06:15:03;;;;;;;21.40;10.73;;;;;;;;;;5074516;28;20206;-82
2021/04/30 06:17:29;;;;;;;11.67;9.67;;;;;;;;;;5076445;28;20197;-81
2021/04/30 06:19:55;;;;;;;12.43;11.13;;;;;;;;;;5057446;28;21061;-79
2021/04/30 06:22:21;;;;;;;12.07;10.83;;;;;;;;;;5075365;28;20175;-82
2021/04/30 06:24:48;;;;;;;14.17;10.10;;;;;;;;;;5057162;28;20199;-80
2021/04/30 06:27:15;;;;;;;11.10;9.97;;;;;;;;;;5057165;28;20229;-82
2021/04/30 06:29:42;;;;;;;12.97;11.40;;;;;;;;;;5057406;28;20202;-81
2021/04/30 06:32:08;;;;;;;13.27;11.30;;;;;;;;;;5074703;28;20234;-82
2021/04/30 06:34:34;;;;;;;12.80;11.13;;;;;;;;;;5033649;28;20226;-81
2021/04/30 06:37:00;;;;;;;11.73;10.13;;;;;;;;;;5030887;28;20539;-82
2021/04/30 06:39:27;;;;;;;11.87;10.63;;;;;;;;;;5036639;28;20572;-83
2021/04/30 06:41:56;;;;;;;13.43;11.20;;;;;;;;;;5054801;28;20274;-83
2021/04/30 06:44:22;;;;;;;12.57;11.27;;;;;;;;;;5053483;28;20207;-83
2021/04/30 06:46:49;;;;;;;13.57;10.77;;;;;;;;;;5053637;28;20879;-82
2021/04/30 06:49:15;;;;;;;13.33;11.07;;;;;;;;;;5054552;28;20265;-82
2021/04/30 06:51:41;;;;;;;14.73;10.77;;;;;;;;;;5054222;28;20301;-81
2021/04/30 06:54:07;;;;;;;11.67;10.67;;;;;;;;;;5054536;28;20215;-82
2021/04/30 06:56:34;;;;;;;13.10;10.73;;;;;;;;;;5036821;28;20654;-82
2021/04/30 06:59:00;;;;;;;13.37;11.83;;;;;;;;;;5036608;28;20230;-84
2021/04/30 07:01:26;;;;;;;12.90;11.47;;;;;;;;;;5054159;28;20693;-81
2021/04/30 07:03:53;;;;;;;12.53;10.93;;;;;;;;;;5036443;28;20239;-81
2021/04/30 07:06:20;;;;;;;14.20;11.03;;;;;;;;;;5036224;28;20200;-81
2021/04/30 07:08:46;;;;;;;18.07;11.80;;;;;;;;;;5054170;28;20215;-81
2021/04/30 07:11:12;;;;;;;12.37;11.03;;;;;;;;;;5054016;28;20242;-82
2021/04/30 07:13:38;;;;;;;16.03;11.80;;;;;;;;;;5036100;28;20187;-82
2021/04/30 07:16:05;;;;;;;15.20;12.30;;;;;;;;;;5036088;28;20237;-82
2021/04/30 07:18:32;;;;;;;13.10;11.73;;;;;;;;;;5035716;28;20253;-82
2021/04/30 07:20:59;;;;;;;14.37;11.47;;;;;;;;;;5053899;28;20227;-81
2021/04/30 07:23:26;;;;;;;14.07;11.07;;;;;;;;;;5053328;28;20245;-81
2021/04/30 07:25:52;;;;;;;15.70;13.43;;;;;;;;;;5053586;28;20297;-82
2021/04/30 07:28:18;;;;;;;13.73;12.03;;;;;;;;;;5036198;28;20647;-81
2021/04/30 07:30:44;;;;;;;12.83;11.47;;;;;;;;;;5035703;28;20659;-82
2021/04/30 07:33:11;;;;;;;12.47;11.20;;;;;;;;;;5052762;28;20211;-82
2021/04/30 07:35:37;;;;;;;11.43;10.43;;;;;;;;;;5032505;28;20204;-81
2021/04/30 07:38:05;;;;;;;12.93;10.67;;;;;;;;;;5015970;28;20238;-82
2021/04/30 07:40:31;;;;;;;12.20;10.43;;;;;;;;;;5015585;28;20251;-81
2021/04/30 07:42:58;;;;;;;12.57;11.27;;;;;;;;;;5015537;28;20238;-81
2021/04/30 07:45:24;;;;;;;15.53;12.07;;;;;;;;;;5032911;28;20246;-81
2021/04/30 07:47:50;;;;;;;14.40;10.47;;;;;;;;;;5024434;28;20191;-81
2021/04/30 07:50:16;;;;;;;12.20;10.87;;;;;;;;;;5035566;28;20650;-82
2021/04/30 07:52:42;;;;;;;11.63;10.53;;;;;;;;;;5035689;28;20234;-83
2021/04/30 07:55:10;;;;;;;14.10;10.70;;;;;;;;;;5053068;28;20212;-83
2021/04/30 07:57:38;;;;;;;14.40;11.13;;;;;;;;;;5036001;28;20188;-83
2021/04/30 08:00:06;;;;;;;11.90;10.70;;;;;;;;;;5036019;28;20199;-85
2021/04/30 08:02:32;;;;;;;14.77;11.30;;;;;;;;;;5035567;28;20241;-83
2021/04/30 08:04:59;;;;;;;12.20;10.90;;;;;;;;;;5035555;28;20203;-83
2021/04/30 08:07:25;;;;;;;17.47;11.53;;;;;;;;;;5035727;28;20231;-83
2021/04/30 08:09:53;;;;;;;12.23;11.00;;;;;;;;;;5035913;28;20249;-83
2021/04/30 08:12:20;;;;;;;11.50;10.10;;;;;;;;;;5035458;28;20199;-83
2021/04/30 08:14:46;;;;;;;11.77;10.50;;;;;;;;;;5053410;28;20827;-82
2021/04/30 08:17:13;;;;;;;13.33;10.57;;;;;;;;;;5035856;28;20203;-87
2021/04/30 08:19:39;;;;;;;15.70;11.20;;;;;;;;;;5035949;28;20203;-83
2021/04/30 08:22:05;;;;;;;11.43;10.20;;;;;;;;;;5035258;28;20240;-83
2021/04/30 08:24:31;;;;;;;11.73;10.47;;;;;;;;;;5035514;28;20191;-81
2021/04/30 08:26:58;;;;;;;14.37;11.07;;;;;;;;;;5053203;28;20219;-82
2021/04/30 08:29:25;;;;;;;12.67;10.70;;;;;;;;;;5035346;28;20552;-82
2021/04/30 08:31:51;;;;;;;12.70;10.73;;;;;;;;;;5035215;28;20199;-82
2021/04/30 08:34:17;;;;;;;15.20;10.90;;;;;;;;;;5034721;28;20203;-82
2021/04/30 08:36:44;;;;;;;17.20;11.43;;;;;;;;;;5053023;28;20249;-81
2021/04/30 08:39:12;;;;;;;13.20;11.47;;;;;;;;;;5035159;28;20667;-82
2021/04/30 08:41:38;;;;;;;13.27;10.87;;;;;;;;;;5052865;28;20310;-82
2021/04/30 08:44:05;;;;;;;14.40;11.20;;;;;;;;;;5035229;28;20555;-82
2021/04/30 08:46:32;;;;;;;17.17;11.57;;;;;;;;;;5035328;28;20196;-81
2021/04/30 08:49:03;;;;;;;12.17;11.00;;;;;;;;;;5034703;28;20225;-82
2021/04/30 08:51:29;;;;;;;11.03;10.03;;;;;;;;;;5035300;28;20647;-83
2021/04/30 08:53:55;;;;;;;12.33;10.93;;;;;;;;;;5052489;28;20211;-80
2021/04/30 08:56:21;;;;;;;11.63;10.43;;;;;;;;;;5036103;28;20206;-80
2021/04/30 08:58:48;;;;;;;12.20;10.87;;;;;;;;;;5056694;28;20179;-82
2021/04/30 09:01:14;;;;;;;19.27;10.97;;;;;;;;;;5038804;28;20219;-82
2021/04/30 09:03:41;;;;;;;12.27;11.07;;;;;;;;;;5037989;28;21313;-81
2021/04/30 09:06:08;;;;;;;11.77;10.63;;;;;;;;;;5055416;28;20257;-83
2021/04/30 09:08:44;;;;;;;11.10;10.10;;;;;;;;;;5038193;28;20237;-80
2021/04/30 09:11:10;;;;;;;12.53;11.20;;;;;;;;;;5038927;28;20191;-83
2021/04/30 09:13:40;;;;;;;13.73;10.63;;;;;;;;;;5038634;28;20195;-80
2021/04/30 09:16:07;;;;;;;11.40;10.33;;;;;;;;;;5037763;28;21126;-80
2021/04/30 09:18:33;;;;;;;12.13;10.37;;;;;;;;;;5037937;28;20245;-80
2021/04/30 09:21:07;;;;;;;11.37;9.57;;;;;;;;;;5038371;28;20239;-81
2021/04/30 09:23:34;;;;;;;11.47;9.50;;;;;;;;;;5038339;28;20203;-80
2021/04/30 09:26:01;;;;;;;11.03;8.83;;;;;;;;;;5056111;28;20219;-80
2021/04/30 09:28:27;;;;;;;10.63;9.53;;;;;;;;;;5055977;28;20211;-81
2021/04/30 09:30:54;;;;;;;11.77;9.90;;;;;;;;;;5055939;28;20254;-81
2021/04/30 09:33:21;;;;;;;10.73;9.13;;;;;;;;;;5035743;28;20191;-80
2021/04/30 09:35:48;;;;;;;10.57;9.47;;;;;;;;;;5018085;28;20232;-80
2021/04/30 09:38:19;;;;;;;10.90;9.80;;;;;;;;;;5064892;28;20183;-81
2021/04/30 09:40:45;;;;;;;10.53;9.50;;;;;;;;;;5052891;28;20230;-81
2021/04/30 09:43:12;;;;;;;10.43;9.43;;;;;;;;;;5072484;28;20218;-81
2021/04/30 09:45:39;;;;;;;15.13;9.30;;;;;;;;;;5057845;28;20229;-81
2021/04/30 09:48:06;;;;;;;12.50;8.97;;;;;;;;;;5058029;28;20204;-82
2021/04/30 09:50:33;;;;;;;11.13;9.30;;;;;;;;;;5076111;28;20175;-83
2021/04/30 09:53:00;;;;;;;10.13;9.13;;;;;;;;;;5064077;28;20226;-82
2021/04/30 09:55:38;;;;;;;10.37;9.37;;;;;;;;;;5037822;28;20993;-81
2021/04/30 09:58:10;;;;;;;10.73;9.70;;;;;;;;;;5055815;28;20579;-82
2021/04/30 10:00:36;;;;;;;10.23;9.30;;;;;;;;;;5055626;28;20234;-80
2021/04/30 10:03:11;;;;;;;10.47;9.10;;;;;;;;;;5037788;28;20249;-82
2021/04/30 10:05:37;;;;;;;12.90;10.37;;;;;;;;;;5055912;28;20214;-80
2021/04/30 10:08:13;;;;;;;10.90;9.50;;;;;;;;;;5033393;28;20286;-80
2021/04/30 10:10:40;;;;;;;11.20;9.40;;;;;;;;;;5035391;28;20209;-78
2021/04/30 10:13:07;;;;;;;10.40;9.20;;;;;;;;;;5035117;28;20676;-82
2021/04/30 10:15:33;;;;;;;12.07;9.17;;;;;;;;;;5034225;28;20722;-83
2021/04/30 10:18:00;;;;;;;10.47;8.13;;;;;;;;;;5035282;28;20211;-81
2021/04/30 10:20:26;;;;;;;14.87;9.83;;;;;;;;;;5033788;28;20226;-81
2021/04/30 10:22:53;;;;;;;11.43;8.90;;;;;;;;;;5034239;28;20977;-80
2021/04/30 10:25:20;;;;;;;9.47;7.90;;;;;;;;;;5033759;28;20196;-82
2021/04/30 10:27:47;;;;;;;13.93;9.53;;;;;;;;;;5033860;28;20591;-79
2021/04/30 10:30:18;;;;;;;10.70;8.33;;;;;;;;;;5034851;28;20181;-80
2021/04/30 10:32:47;;;;;;;17.10;10.33;;;;;;;;;;5033778;28;20196;-81
2021/04/30 10:35:15;;;;;;;12.50;9.20;;;;;;;;;;5035069;28;20238;-81
2021/04/30 10:37:42;;;;;;;11.93;9.27;;;;;;;;;;5033680;28;20192;-81
2021/04/30 10:40:12;;;;;;;11.00;9.90;;;;;;;;;;5033427;28;20250;-83
2021/04/30 10:42:40;;;;;;;13.00;9.40;;;;;;;;;;5033538;28;20305;-80
2021/04/30 10:45:12;;;;;;;12.70;9.80;;;;;;;;;;5033361;28;20204;-79
2021/04/30 10:47:38;;;;;;;13.20;10.27;;;;;;;;;;5034828;28;20583;-82
2021/04/30 10:50:13;;;;;;;12.60;10.70;;;;;;;;;;5033592;28;20192;-82
2021/04/30 10:52:39;;;;;;;14.60;11.03;;;;;;;;;;5034828;28;20210;-84
2021/04/30 10:55:06;;;;;;;12.00;10.77;;;;;;;;;;5032881;28;20266;-80
2021/04/30 10:58:02;;;;;;;11.83;10.50;;;;;;;;;;5033613;28;20234;-81
2021/04/30 11:00:37;;;;;;;11.13;10.00;;;;;;;;;;4978078;28;20230;-81
2021/04/30 11:03:16;;;;;;;13.43;11.07;;;;;;;;;;5049653;28;20243;-82
2021/04/30 11:05:53;;;;;;;12.07;10.87;;;;;;;;;;5032733;28;20818;-82
2021/04/30 11:08:20;;;;;;;18.77;11.93;;;;;;;;;;5049300;28;20235;-81
2021/04/30 11:10:46;;;;;;;15.00;11.13;;;;;;;;;;5044447;28;20222;-82
2021/04/30 11:13:17;;;;;;;18.50;13.63;;;;;;;;;;5036588;28;20209;-81
2021/04/30 11:15:54;;;;;;;11.43;10.03;;;;;;;;;;5052825;28;20191;-81
2021/04/30 11:18:21;;;;;;;11.67;9.73;;;;;;;;;;5029171;28;20189;-81
2021/04/30 11:20:57;;;;;;;11.40;9.90;;;;;;;;;;5018062;28;20213;-82
2021/04/30 11:23:24;;;;;;;13.87;10.27;;;;;;;;;;5052622;28;20752;-82
2021/04/30 11:26:05;;;;;;;10.90;8.90;;;;;;;;;;5045754;28;20256;-81
2021/04/30 11:28:50;;;;;;;10.93;9.83;;;;;;;;;;5032952;28;20192;-82
2021/04/30 11:31:25;;;;;;;10.70;9.53;;;;;;;;;;5049125;28;20221;-82
2021/04/30 11:34:06;;;;;;;10.73;9.37;;;;;;;;;;5047384;28;20554;-81
2021/04/30 11:36:32;;;;;;;11.40;9.77;;;;;;;;;;5032429;28;20204;-80
2021/04/30 11:39:13;;;;;;;11.90;9.60;;;;;;;;;;5032529;28;20188;-82
2021/04/30 11:41:40;;;;;;;10.60;9.50;;;;;;;;;;5032791;28;20208;-83
2021/04/30 11:44:06;;;;;;;12.93;9.27;;;;;;;;;;5049086;28;20219;-82
2021/04/30 11:46:33;;;;;;;12.67;9.00;;;;;;;;;;5051941;28;20682;-82
2021/04/30 11:49:02;;;;;;;11.70;9.53;;;;;;;;;;5052238;28;20221;-83
2021/04/30 11:51:28;;;;;;;11.67;9.40;;;;;;;;;;5053729;28;20651;-81
2021/04/30 11:53:55;;;;;;;10.47;9.47;;;;;;;;;;5049070;28;21041;-82
2021/04/30 11:56:29;;;;;;;11.40;10.30;;;;;;;;;;5032187;28;20258;-81
2021/04/30 11:58:55;;;;;;;10.50;9.40;;;;;;;;;;5048798;28;20262;-81
2021/04/30 12:01:24;;;;;;;12.87;9.20;;;;;;;;;;5031955;28;20723;-81
2021/04/30 12:03:53;;;;;;;15.93;10.33;;;;;;;;;;5046652;28;20199;-80
2021/04/30 12:06:21;;;;;;;10.17;8.90;;;;;;;;;;5052137;28;20210;-80
2021/04/30 12:08:48;;;;;;;12.20;8.60;;;;;;;;;;5055061;28;20202;-79
2021/04/30 12:11:22;;;;;;;9.47;8.47;;;;;;;;;;5055259;28;20195;-81
2021/04/30 12:13:48;;;;;;;7.90;6.83;;;;;;;;;;5055294;28;20186;-81
2021/04/30 12:16:15;;;;;;;7.20;6.53;;;;;;;;;;5055128;28;20202;-81
2021/04/30 12:18:41;;;;;;;7.50;6.47;;;;;;;;;;5073204;28;20213;-81
2021/04/30 12:21:08;;;;;;;6.67;5.23;;;;;;;;;;5055242;28;20866;-80
2021/04/30 12:23:34;;;;;;;9.02;7.30;;;;;;;;;;5055115;28;21374;-80
2021/04/30 12:26:00;;;;;;;7.17;6.50;;;;;;;;;;5073071;28;20223;-81
2021/04/30 12:28:28;;;;;;;5.37;4.90;;;;;;;;;;5055126;28;20190;-80
2021/04/30 12:30:55;;;;;;;7.73;5.87;;;;;;;;;;5075747;28;20215;-79
2021/04/30 12:33:23;;;;;;;7.33;5.80;;;;;;;;;;5046612;28;20222;-81
2021/04/30 12:35:49;;;;;;;5.97;5.47;;;;;;;;;;5039316;28;20241;-79
2021/04/30 12:38:16;;;;;;;21.53;5.87;;;;;;;;;;5039333;28;20218;-81
2021/04/30 12:40:42;;;;;;;6.50;5.50;;;;;;;;;;5038978;28;20257;-80
2021/04/30 12:43:09;;;;;;;6.83;6.10;;;;;;;;;;5056790;28;20231;-81
2021/04/30 12:45:35;;;;;;;7.07;6.27;;;;;;;;;;5038791;28;20210;-81
2021/04/30 12:48:01;;;;;;;7.80;6.93;;;;;;;;;;5038761;28;20219;-80
2021/04/30 12:50:27;;;;;;;8.43;6.83;;;;;;;;;;5038719;28;20257;-80
2021/04/30 12:52:54;;;;;;;8.23;7.33;;;;;;;;;;5038325;28;20195;-81
2021/04/30 12:55:32;;;;;;;8.23;6.53;;;;;;;;;;5056512;28;20203;-79
2021/04/30 12:57:59;;;;;;;8.33;6.70;;;;;;;;;;5056797;28;20559;-79
2021/04/30 13:00:25;;;;;;;8.47;5.80;;;;;;;;;;5038495;28;20195;-79
2021/04/30 13:02:52;;;;;;;7.43;5.73;;;;;;;;;;5038706;28;20239;-80
2021/04/30 13:05:18;;;;;;;7.00;6.30;;;;;;;;;;5038415;28;20192;-80
2021/04/30 13:07:44;;;;;;;6.90;6.00;;;;;;;;;;5056287;28;20224;-82
2021/04/30 13:10:20;;;;;;;6.60;5.97;;;;;;;;;;5055032;28;20562;-80
2021/04/30 13:13:00;;;;;;;7.87;6.27;;;;;;;;;;5038520;28;20561;-80
2021/04/30 13:15:26;;;;;;;6.83;6.13;;;;;;;;;;5055172;28;20396;-80
2021/04/30 13:17:55;;;;;;;6.77;6.10;;;;;;;;;;5038378;28;20195;-80
2021/04/30 13:20:25;;;;;;;7.83;6.30;;;;;;;;;;5055983;28;20258;-79
2021/04/30 13:22:57;;;;;;;7.40;6.50;;;;;;;;;;5056376;28;20235;-81
2021/04/30 13:25:29;;;;;;;6.50;5.90;;;;;;;;;;5038237;28;20233;-80
2021/04/30 13:27:56;;;;;;;6.70;6.10;;;;;;;;;;5056127;28;20215;-79
2021/04/30 13:30:31;;;;;;;6.43;5.83;;;;;;;;;;5055561;28;20218;-79
2021/04/30 13:33:10;;;;;;;6.57;5.63;;;;;;;;;;5055689;28;20246;-79
2021/04/30 13:35:37;;;;;;;6.83;5.87;;;;;;;;;;5038004;28;20570;-79
2021/04/30 13:38:03;;;;;;;6.63;5.80;;;;;;;;;;5038221;28;20652;-81
2021/04/30 13:40:29;;;;;;;7.17;6.50;;;;;;;;;;5037961;28;20213;-81
2021/04/30 13:42:59;;;;;;;7.83;6.40;;;;;;;;;;5053256;28;20258;-81
2021/04/30 13:45:25;;;;;;;7.53;6.30;;;;;;;;;;5037684;28;20203;-80
2021/04/30 13:47:52;;;;;;;7.30;6.60;;;;;;;;;;5055341;28;20301;-81
2021/04/30 13:50:22;;;;;;;9.13;6.23;;;;;;;;;;5037776;28;20317;-80
2021/04/30 13:52:48;;;;;;;9.30;7.90;;;;;;;;;;5037682;28;20217;-81
2021/04/30 13:55:14;;;;;;;8.70;7.80;;;;;;;;;;5037428;28;20204;-81
2021/04/30 13:57:41;;;;;;;8.67;7.77;;;;;;;;;;5037599;28;20187;-81
2021/04/30 14:00:09;;;;;;;8.87;7.27;;;;;;;;;;5036859;28;20211;-81
2021/04/30 14:02:35;;;;;;;8.83;7.77;;;;;;;;;;5037483;28;20250;-81
2021/04/30 14:05:01;;;;;;;9.13;7.13;;;;;;;;;;5036970;28;20207;-79
2021/04/30 14:07:27;;;;;;;8.27;7.57;;;;;;;;;;5037644;28;20266;-79
2021/04/30 14:09:53;;;;;;;9.27;7.80;;;;;;;;;;5053403;28;20204;-80
2021/04/30 14:12:19;;;;;;;10.73;8.20;;;;;;;;;;5037559;28;20183;-80
2021/04/30 14:14:46;;;;;;;9.50;7.33;;;;;;;;;;5037316;28;20234;-81
2021/04/30 14:17:13;;;;;;;9.27;7.10;;;;;;;;;;5037462;28;20658;-82
2021/04/30 14:19:39;;;;;;;9.50;6.90;;;;;;;;;;5053690;28;20203;-81
2021/04/30 14:22:06;;;;;;;8.40;7.07;;;;;;;;;;5037185;28;20242;-81
2021/04/30 14:24:33;;;;;;;8.20;6.63;;;;;;;;;;5036985;28;20554;-81
2021/04/30 14:27:00;;;;;;;8.13;7.33;;;;;;;;;;5036677;28;20247;-81
2021/04/30 14:29:26;;;;;;;8.83;6.80;;;;;;;;;;5037042;28;20559;-82
2021/04/30 14:31:52;;;;;;;11.97;7.77;;;;;;;;;;5036930;28;20886;-81
2021/04/30 14:34:19;;;;;;;7.77;6.93;;;;;;;;;;5036815;28;20297;-80